Time;durP1;ratioP1;P1;durP2;ratioP2;P2;SDS_P1;SDS_P2;PMS_P1;PMS_P2;Temp;Humidity;BMP_temperature;BMP_pressure;BME280_temperature;BME280_humidity;BME280_pressure;Samples;Min_cycle;Max_cycle;Signal;HPM_P1;HPM_P2
2023/04/01 00:01:16;;;;;;;4.28;2.88;;;-0.10;99.90;;;;;;4887298;29;20533;-68
2023/04/01 00:03:44;;;;;;;5.40;3.25;;;-0.10;99.90;;;;;;4889327;29;20048;-62
2023/04/01 00:06:17;;;;;;;6.72;3.35;;;-0.10;99.90;;;;;;4889397;29;20128;-62
2023/04/01 00:08:44;;;;;;;6.63;4.68;;;-0.20;99.90;;;;;;4888969;29;20063;-64
2023/04/01 00:11:12;;;;;;;3.30;2.97;;;-0.20;99.90;;;;;;4889759;29;20073;-62
2023/04/01 00:13:39;;;;;;;4.05;2.72;;;-0.20;99.90;;;;;;4884949;29;20052;-62
2023/04/01 00:16:07;;;;;;;4.70;3.38;;;-0.20;99.90;;;;;;4890384;29;20063;-63
2023/04/01 00:18:47;;;;;;;8.02;3.60;;;-0.30;99.90;;;;;;4888848;29;20100;-61
2023/04/01 00:21:15;;;;;;;4.30;3.47;;;-0.30;99.90;;;;;;4891598;29;20099;-63
2023/04/01 00:23:42;;;;;;;6.53;3.10;;;-0.30;99.90;;;;;;4890478;29;20076;-62
2023/04/01 00:26:09;;;;;;;3.40;2.88;;;-0.30;99.90;;;;;;4891058;29;20159;-60
2023/04/01 00:28:37;;;;;;;4.50;3.72;;;-0.30;99.90;;;;;;4889156;29;20399;-66
2023/04/01 00:31:06;;;;;;;6.47;4.18;;;-0.30;99.90;;;;;;4889391;29;20063;-64
2023/04/01 00:33:33;;;;;;;6.00;3.83;;;-0.30;99.90;;;;;;4889186;29;20108;-62
2023/04/01 00:36:12;;;;;;;5.30;3.28;;;-0.40;99.90;;;;;;4872117;29;20551;-67
2023/04/01 00:38:41;;;;;;;5.43;2.58;;;-0.40;99.90;;;;;;4884993;29;20147;-63
2023/04/01 00:41:13;;;;;;;4.53;3.40;;;-0.40;99.90;;;;;;4887717;29;20614;-61
2023/04/01 00:43:46;;;;;;;3.67;3.15;;;-0.50;99.90;;;;;;4890555;29;20052;-62
2023/04/01 00:46:13;;;;;;;3.42;2.70;;;-0.50;99.90;;;;;;4884831;29;20053;-67
2023/04/01 00:48:44;;;;;;;7.78;4.10;;;-0.50;99.90;;;;;;4876602;29;20112;-63
2023/04/01 00:51:20;;;;;;;7.75;4.05;;;-0.50;99.90;;;;;;4890077;29;20135;-63
2023/04/01 00:53:50;;;;;;;7.10;3.65;;;-0.50;99.90;;;;;;4884863;29;20057;-62
2023/04/01 00:56:22;;;;;;;4.25;3.28;;;-0.50;99.90;;;;;;4882674;29;20056;-65
2023/04/01 00:59:08;;;;;;;2.80;2.53;;;-0.50;99.90;;;;;;4874447;29;20052;-67
2023/04/01 01:01:36;;;;;;;3.78;3.17;;;-0.60;99.90;;;;;;4889527;29;21165;-65
2023/04/01 01:04:03;;;;;;;2.90;2.60;;;-0.60;99.90;;;;;;4891946;29;20049;-63
2023/04/01 01:07:12;;;;;;;3.83;2.63;;;-0.60;99.90;;;;;;4885723;29;20090;-63
2023/04/01 01:10:12;;;;;;;4.32;2.75;;;-0.60;99.90;;;;;;4886256;29;20482;-63
2023/04/01 01:12:58;;;;;;;9.18;4.10;;;-0.60;99.90;;;;;;4884559;29;20060;-63
2023/04/01 01:15:35;;;;;;;5.43;2.55;;;-0.60;99.90;;;;;;4871249;29;20124;-66
2023/04/01 01:18:43;;;;;;;3.00;2.47;;;-0.70;99.90;;;;;;4888137;29;20045;-62
2023/04/01 01:21:20;;;;;;;5.10;2.40;;;-0.70;99.90;;;;;;4888242;29;20495;-62
2023/04/01 01:23:50;;;;;;;3.45;2.30;;;-0.70;99.90;;;;;;4887093;29;20575;-62
2023/04/01 01:26:39;;;;;;;6.65;2.90;;;-0.70;99.90;;;;;;4887032;29;20060;-61
2023/04/01 01:29:43;;;;;;;3.85;2.25;;;-0.80;99.90;;;;;;4881840;29;20057;-63
2023/04/01 01:32:38;;;;;;;3.08;2.50;;;-0.80;99.90;;;;;;4880686;29;20056;-63
2023/04/01 01:35:11;;;;;;;2.92;2.13;;;-0.80;99.90;;;;;;4888934;29;20139;-64
2023/04/01 01:37:40;;;;;;;2.45;1.90;;;-0.80;99.90;;;;;;4889175;29;20143;-64
2023/04/01 01:40:11;;;;;;;2.63;1.85;;;-0.80;99.90;;;;;;4889783;29;20057;-64
2023/04/01 01:42:44;;;;;;;2.63;1.92;;;-0.80;99.90;;;;;;4883944;29;20048;-63
2023/04/01 01:45:14;;;;;;;3.85;2.22;;;-0.80;99.90;;;;;;4884921;29;20055;-61
2023/04/01 01:47:42;;;;;;;;;;;-0.80;99.90;;;;;;4873004;29;20052;-61
2023/04/01 01:50:11;;;;;;;5.53;2.47;;;-0.80;99.90;;;;;;4888941;29;19927;-63
2023/04/01 01:52:38;;;;;;;4.25;2.47;;;-0.90;99.90;;;;;;4870312;29;20045;-63
2023/04/01 01:55:30;;;;;;;2.22;1.98;;;-0.90;99.90;;;;;;4886954;29;20140;-65
2023/04/01 01:58:17;;;;;;;2.03;1.52;;;-0.90;99.90;;;;;;4886638;29;20770;-66
2023/04/01 02:00:55;;;;;;;2.15;1.88;;;-0.90;99.90;;;;;;4886903;29;20053;-63
2023/04/01 02:03:26;;;;;;;3.33;1.85;;;-0.90;99.90;;;;;;4882200;29;20048;-64
2023/04/01 02:05:56;;;;;;;6.88;2.05;;;-0.90;99.90;;;;;;4875565;29;20056;-62
2023/04/01 02:08:53;;;;;;;1.58;1.40;;;-0.90;99.90;;;;;;4888710;29;20075;-61
2023/04/01 02:11:43;;;;;;;2.67;1.88;;;-0.90;99.90;;;;;;4876673;29;20167;-61
2023/04/01 02:14:17;;;;;;;2.83;2.13;;;-0.90;99.90;;;;;;4886694;29;20064;-62
2023/04/01 02:16:53;;;;;;;3.47;2.53;;;-0.90;99.90;;;;;;4866666;29;20056;-61
2023/04/01 02:19:43;;;;;;;1.92;1.67;;;-0.90;99.90;;;;;;4888049;29;20131;-65
2023/04/01 02:22:16;;;;;;;4.33;2.40;;;-1.00;99.90;;;;;;4864695;29;20376;-68
2023/04/01 02:24:45;;;;;;;3.08;2.17;;;-1.00;99.90;;;;;;4886141;29;20362;-63
2023/04/01 02:27:12;;;;;;;4.57;2.33;;;-1.00;99.90;;;;;;4892629;29;20128;-64
2023/04/01 02:29:39;;;;;;;5.72;1.90;;;-1.00;99.90;;;;;;4889845;29;20147;-61
2023/04/01 02:32:09;;;;;;;3.55;2.17;;;-1.00;99.90;;;;;;4887362;29;20037;-64
2023/04/01 02:34:36;;;;;;;3.65;1.88;;;-1.00;99.90;;;;;;4891014;29;20558;-61
2023/04/01 02:37:04;;;;;;;3.80;1.38;;;-1.00;99.90;;;;;;4874267;29;20143;-63
2023/04/01 02:39:31;;;;;;;2.35;1.67;;;-1.00;99.90;;;;;;4874220;29;20460;-62
2023/04/01 02:41:58;;;;;;;3.25;1.70;;;-1.00;99.90;;;;;;4890099;29;20574;-66
2023/04/01 02:44:25;;;;;;;3.50;2.03;;;-1.00;99.90;;;;;;4894296;29;20059;-64
2023/04/01 02:46:52;;;;;;;4.40;1.48;;;-1.00;99.90;;;;;;4891893;29;20135;-61
2023/04/01 02:49:19;;;;;;;4.03;2.03;;;-1.00;99.90;;;;;;4890343;29;20057;-62
2023/04/01 02:51:46;;;;;;;2.85;2.20;;;-1.00;99.90;;;;;;4888746;29;20550;-63
2023/04/01 02:54:13;;;;;;;6.43;2.72;;;-0.90;99.90;;;;;;4895343;29;20413;-63
2023/04/01 02:56:41;;;;;;;8.02;2.17;;;-1.00;99.90;;;;;;4874461;29;20057;-61
2023/04/01 02:59:08;;;;;;;3.13;1.73;;;-1.00;99.90;;;;;;4884990;29;20064;-63
2023/04/01 03:01:35;;;;;;;2.67;2.13;;;-0.90;99.90;;;;;;4870116;29;20063;-63
2023/04/01 03:04:02;;;;;;;2.50;1.52;;;-1.00;99.90;;;;;;4891829;29;20731;-62
2023/04/01 03:06:29;;;;;;;1.88;1.60;;;-1.00;99.90;;;;;;4885690;29;20080;-66
2023/04/01 03:08:56;;;;;;;2.33;1.40;;;-0.90;99.90;;;;;;4891088;29;20058;-67
2023/04/01 03:11:23;;;;;;;3.67;1.60;;;-0.90;99.90;;;;;;4887889;29;20203;-64
2023/04/01 03:13:50;;;;;;;9.45;2.10;;;-0.90;99.90;;;;;;4882526;29;20052;-63
2023/04/01 03:16:17;;;;;;;4.72;2.20;;;-1.00;99.90;;;;;;4891374;29;20044;-62
2023/04/01 03:18:44;;;;;;;2.28;1.60;;;-1.00;99.90;;;;;;4889809;29;20045;-65
2023/04/01 03:21:20;;;;;;;3.45;2.50;;;-1.00;99.90;;;;;;4871363;29;20077;-65
2023/04/01 03:23:47;;;;;;;4.55;2.10;;;-1.00;99.90;;;;;;4887400;29;20056;-63
2023/04/01 03:26:14;;;;;;;3.17;2.17;;;-1.00;99.90;;;;;;4891524;29;20048;-65
2023/04/01 03:28:42;;;;;;;3.80;1.77;;;-1.00;99.90;;;;;;4859718;29;20132;-63
2023/04/01 03:31:09;;;;;;;7.85;1.50;;;-1.00;99.90;;;;;;4889066;29;20079;-64
2023/04/01 03:33:43;;;;;;;3.95;1.83;;;-1.00;99.90;;;;;;4887369;29;20072;-63
2023/04/01 03:36:12;;;;;;;5.57;2.00;;;-1.00;99.90;;;;;;4876534;29;20562;-64
2023/04/01 03:38:43;;;;;;;4.90;2.33;;;-1.00;99.90;;;;;;4890390;29;20071;-68
2023/04/01 03:41:15;;;;;;;7.20;2.22;;;-1.00;99.90;;;;;;4873978;29;20048;-63
2023/04/01 03:43:42;;;;;;;3.55;1.70;;;-1.00;99.90;;;;;;4872979;29;20057;-64
2023/04/01 03:46:10;;;;;;;1.88;1.63;;;-1.00;99.90;;;;;;4884645;29;20071;-63
2023/04/01 03:48:37;;;;;;;2.15;1.65;;;-1.00;99.90;;;;;;4882939;29;20151;-61
2023/04/01 03:51:08;;;;;;;3.78;1.50;;;-1.00;99.90;;;;;;4885629;29;20135;-63
2023/04/01 03:53:35;;;;;;;6.20;1.90;;;-0.90;99.90;;;;;;4885748;29;20185;-65
2023/04/01 03:56:08;;;;;;;4.05;2.08;;;-1.00;99.90;;;;;;4888546;29;20555;-64
2023/04/01 03:58:36;;;;;;;4.53;2.50;;;-1.00;99.90;;;;;;4871531;29;20052;-61
2023/04/01 04:01:15;;;;;;;5.05;1.60;;;-1.00;99.90;;;;;;4889266;29;20056;-66
2023/04/01 04:03:43;;;;;;;8.95;1.73;;;-0.90;99.90;;;;;;4872239;29;20060;-65
2023/04/01 04:06:12;;;;;;;2.33;1.48;;;-0.90;99.90;;;;;;4873781;29;20135;-62
2023/04/01 04:08:40;;;;;;;5.93;2.53;;;-0.90;99.90;;;;;;4889709;29;20147;-65
2023/04/01 04:11:07;;;;;;;4.50;1.65;;;-0.90;99.90;;;;;;4889366;29;20974;-62
2023/04/01 04:13:37;;;;;;;2.72;1.92;;;-0.90;99.90;;;;;;4891490;29;20060;-66
2023/04/01 04:16:04;;;;;;;5.53;2.20;;;-1.00;99.90;;;;;;4891269;29;20669;-65
2023/04/01 04:18:33;;;;;;;4.35;1.55;;;-0.90;99.90;;;;;;4878634;29;20057;-62
2023/04/01 04:21:00;;;;;;;5.30;2.30;;;-0.90;99.90;;;;;;4890210;29;20048;-62
2023/04/01 04:23:28;;;;;;;2.05;1.50;;;-0.90;99.90;;;;;;4882760;29;20057;-66
2023/04/01 04:26:05;;;;;;;4.57;1.77;;;-0.90;99.90;;;;;;4889727;29;20376;-62
2023/04/01 04:28:33;;;;;;;3.80;2.33;;;-0.90;99.90;;;;;;4888355;29;20563;-64
2023/04/01 04:31:00;;;;;;;6.20;3.08;;;-0.80;99.90;;;;;;4890211;29;20079;-63
2023/04/01 04:33:27;;;;;;;1.80;1.60;;;-0.80;99.90;;;;;;4891807;29;20072;-63
2023/04/01 04:35:56;;;;;;;3.65;1.67;;;-0.80;99.90;;;;;;4890191;29;20052;-65
2023/04/01 04:38:23;;;;;;;4.63;1.90;;;-0.80;99.90;;;;;;4889779;29;20586;-61
2023/04/01 04:40:50;;;;;;;8.45;2.15;;;-0.80;99.90;;;;;;4888606;29;20048;-63
2023/04/01 04:43:18;;;;;;;3.30;2.13;;;-0.80;99.90;;;;;;4885358;29;20048;-61
2023/04/01 04:45:46;;;;;;;6.07;3.53;;;-0.80;99.90;;;;;;4888739;29;20156;-67
2023/04/01 04:48:18;;;;;;;2.88;1.60;;;-0.80;99.90;;;;;;4888123;29;20053;-62
2023/04/01 04:50:46;;;;;;;5.53;2.08;;;-0.80;99.90;;;;;;4888821;29;20171;-65
2023/04/01 04:53:15;;;;;;;2.42;1.60;;;-0.80;99.90;;;;;;4884342;29;20049;-62
2023/04/01 04:55:46;;;;;;;3.03;1.63;;;-0.70;99.90;;;;;;4889483;29;20140;-66
2023/04/01 04:58:30;;;;;;;2.50;1.35;;;-0.70;99.90;;;;;;4888637;29;20049;-67
2023/04/01 05:00:58;;;;;;;8.82;2.30;;;-0.70;99.90;;;;;;4888453;29;20486;-63
2023/04/01 05:03:29;;;;;;;3.10;1.77;;;-0.60;99.90;;;;;;4886769;29;20052;-62
2023/04/01 05:05:57;;;;;;;4.88;1.88;;;-0.60;99.90;;;;;;4879668;29;20055;-67
2023/04/01 05:08:23;;;;;;;6.93;2.30;;;-0.60;99.90;;;;;;4888453;29;20056;-66
2023/04/01 05:10:51;;;;;;;3.13;1.48;;;-0.60;99.90;;;;;;4889255;29;20620;-62
2023/04/01 05:13:18;;;;;;;4.38;2.05;;;-0.60;99.90;;;;;;4887850;29;20874;-62
2023/04/01 05:15:46;;;;;;;4.88;1.67;;;-0.60;99.90;;;;;;4871749;29;20732;-65
2023/04/01 05:18:13;;;;;;;3.75;1.27;;;-0.50;99.90;;;;;;4887336;29;20155;-64
2023/04/01 05:20:46;;;;;;;3.13;1.88;;;-0.50;99.90;;;;;;4886731;29;20140;-62
2023/04/01 05:23:13;;;;;;;3.40;1.90;;;-0.40;99.90;;;;;;4883929;29;20055;-62
2023/04/01 05:25:40;;;;;;;8.30;1.77;;;-0.40;99.90;;;;;;4862818;29;20045;-62
2023/04/01 05:28:08;;;;;;;3.22;1.70;;;-0.40;99.90;;;;;;4882189;29;20048;-67
2023/04/01 05:30:34;;;;;;;4.40;2.30;;;-0.30;99.90;;;;;;4870265;29;20053;-62
2023/04/01 05:33:37;;;;;;;2.83;1.75;;;-0.20;99.90;;;;;;4881165;29;20116;-63
2023/04/01 05:36:15;;;;;;;5.88;2.05;;;-0.20;99.90;;;;;;4875857;29;20690;-66
2023/04/01 05:38:45;;;;;;;4.45;1.67;;;-0.20;99.90;;;;;;4871649;29;20065;-67
2023/04/01 05:41:13;;;;;;;3.00;1.30;;;-0.10;99.90;;;;;;4886557;29;20064;-64
2023/04/01 05:43:43;;;;;;;2.03;1.48;;;-0.10;99.90;;;;;;4881841;29;20471;-65
2023/04/01 05:46:31;;;;;;;4.03;1.40;;;-0.10;99.90;;;;;;4847547;29;20059;-63
2023/04/01 05:49:07;;;;;;;1.45;1.08;;;0.00;99.90;;;;;;4886083;29;20457;-63
2023/04/01 05:51:35;;;;;;;5.03;1.17;;;0.00;99.90;;;;;;4880540;29;20056;-63
2023/04/01 05:54:03;;;;;;;2.83;1.70;;;0.00;99.90;;;;;;4878004;29;20040;-61
2023/04/01 05:56:30;;;;;;;4.75;1.67;;;0.10;99.90;;;;;;4877032;29;20084;-62
2023/04/01 05:58:58;;;;;;;1.92;1.58;;;0.10;99.90;;;;;;4891637;29;20055;-65
2023/04/01 06:01:25;;;;;;;8.95;1.55;;;0.10;99.90;;;;;;4887595;29;20045;-63
2023/04/01 06:03:52;;;;;;;5.07;2.33;;;0.20;99.90;;;;;;4890726;29;20092;-62
2023/04/01 06:06:26;;;;;;;3.67;1.52;;;0.20;99.90;;;;;;4891526;29;20052;-62
2023/04/01 06:09:15;;;;;;;6.05;2.30;;;0.30;99.90;;;;;;4889675;29;20052;-62
2023/04/01 06:12:07;;;;;;;11.18;2.53;;;0.30;99.90;;;;;;4874418;29;20056;-63
2023/04/01 06:15:04;;;;;;;4.57;1.52;;;0.30;99.90;;;;;;4890539;29;20089;-64
2023/04/01 06:17:50;;;;;;;3.65;1.20;;;0.40;99.90;;;;;;4875179;29;20147;-65
2023/04/01 06:20:50;;;;;;;10.25;2.17;;;0.40;99.90;;;;;;4876677;29;20044;-62
2023/04/01 06:23:41;;;;;;;;;;;0.50;99.90;;;;;;4874012;29;20056;-66
2023/04/01 06:26:36;;;;;;;8.00;1.25;;;0.50;99.90;;;;;;4887539;29;19927;-64
2023/04/01 06:29:15;;;;;;;6.07;1.90;;;0.60;99.90;;;;;;4891273;29;20052;-63
2023/04/01 06:32:01;;;;;;;3.92;1.70;;;0.60;99.90;;;;;;4890076;29;20397;-62
2023/04/01 06:34:52;;;;;;;9.88;1.52;;;0.60;99.90;;;;;;4892240;29;20193;-66
2023/04/01 06:37:25;;;;;;;3.60;1.65;;;0.70;99.90;;;;;;4871974;29;20086;-63
2023/04/01 06:40:23;;;;;;;5.55;2.10;;;0.70;99.90;;;;;;4891028;29;20044;-65
2023/04/01 06:43:12;;;;;;;7.78;3.03;;;0.80;99.90;;;;;;4891727;29;20056;-63
2023/04/01 06:46:20;;;;;;;1.50;0.68;;;0.80;99.90;;;;;;4838158;29;20604;-64
2023/04/01 06:49:21;;;;;;;12.38;1.30;;;0.80;99.90;;;;;;4892129;29;20114;-64
2023/04/01 06:52:23;;;;;;;1.98;1.88;;;0.90;99.90;;;;;;4875346;29;20475;-67
2023/04/01 06:55:35;;;;;;;5.88;2.72;;;0.90;99.90;;;;;;4854799;29;20053;-67
2023/04/01 06:58:26;;;;;;;1.63;1.10;;;1.00;99.90;;;;;;4886646;29;20130;-63
2023/04/01 07:00:58;;;;;;;7.03;1.90;;;1.00;99.90;;;;;;4888286;29;20816;-65
2023/04/01 07:03:51;;;;;;;4.55;1.10;;;1.10;99.90;;;;;;4888838;29;20143;-70
2023/04/01 07:06:28;;;;;;;3.35;1.88;;;1.10;99.90;;;;;;4886265;29;20475;-61
2023/04/01 07:09:00;;;;;;;3.10;1.08;;;1.20;99.90;;;;;;4887188;29;20159;-62
2023/04/01 07:11:53;;;;;;;3.80;1.27;;;1.20;99.90;;;;;;4887498;29;20761;-62
2023/04/01 07:14:41;;;;;;;1.60;0.95;;;1.20;99.90;;;;;;4890802;29;20122;-64
2023/04/01 07:17:24;;;;;;;0.80;0.43;;;1.20;99.90;;;;;;4881830;29;20047;-62
2023/04/01 07:20:05;;;;;;;2.78;1.25;;;1.20;99.90;;;;;;4884606;29;20080;-65
2023/04/01 07:22:36;;;;;;;3.92;1.00;;;1.30;99.90;;;;;;4886572;29;20044;-62
2023/04/01 07:25:35;;;;;;;2.78;1.42;;;1.30;99.90;;;;;;4887424;29;20064;-62
2023/04/01 07:28:40;;;;;;;4.93;1.45;;;1.40;99.90;;;;;;4831300;29;20779;-65
2023/04/01 07:31:30;;;;;;;3.17;1.13;;;1.40;99.90;;;;;;4829109;29;20509;-60
2023/04/01 07:34:05;;;;;;;;;;;1.50;99.90;;;;;;4870111;29;20163;-59
2023/04/01 07:36:37;;;;;;;1.75;1.25;;;1.50;99.90;;;;;;4872747;29;19927;-61
2023/04/01 07:39:40;;;;;;;10.82;2.05;;;1.60;99.90;;;;;;4887360;29;20055;-64
2023/04/01 07:42:20;;;;;;;;;;;1.60;99.90;;;;;;4872139;29;20059;-61
2023/04/01 07:45:00;;;;;;;1.75;1.10;;;1.60;99.90;;;;;;4872175;29;19923;-63
2023/04/01 07:47:42;;;;;;;2.47;1.05;;;1.60;99.90;;;;;;4880008;29;20366;-67
2023/04/01 07:50:17;;;;;;;3.05;1.02;;;1.60;99.90;;;;;;4871715;29;20060;-64
2023/04/01 07:53:10;;;;;;;10.07;1.50;;;1.70;99.90;;;;;;4888190;29;20092;-69
2023/04/01 07:56:01;;;;;;;6.90;1.13;;;1.70;99.90;;;;;;4885397;29;20486;-62
2023/04/01 07:58:50;;;;;;;11.77;2.53;;;1.70;99.90;;;;;;4869452;29;20112;-64
2023/04/01 08:02:06;;;;;;;2.25;0.80;;;1.80;99.90;;;;;;4887232;29;20159;-63
2023/04/01 08:04:52;;;;;;;3.47;1.20;;;1.80;99.90;;;;;;4872143;29;20411;-60
2023/04/01 08:07:25;;;;;;;1.73;0.85;;;1.90;99.90;;;;;;4870104;29;20414;-61
2023/04/01 08:10:40;;;;;;;1.92;1.13;;;1.90;99.90;;;;;;4887523;29;20049;-66
2023/04/01 08:14:02;;;;;;;8.40;1.42;;;2.00;99.90;;;;;;4886888;29;20529;-65
2023/04/01 08:17:07;;;;;;;8.88;1.98;;;2.00;99.90;;;;;;4862494;29;20045;-64
2023/04/01 08:20:08;;;;;;;15.00;1.65;;;2.10;99.90;;;;;;4871915;29;20139;-63
2023/04/01 08:23:08;;;;;;;4.07;0.80;;;2.10;99.90;;;;;;4872236;29;20464;-64
2023/04/01 08:25:42;;;;;;;3.33;1.13;;;2.20;99.90;;;;;;4852646;29;20060;-63
2023/04/01 08:28:25;;;;;;;2.10;2.00;;;2.20;99.90;;;;;;4883991;29;20131;-65
2023/04/01 08:31:00;;;;;;;5.65;1.38;;;2.20;99.90;;;;;;4889005;29;20104;-62
2023/04/01 08:33:30;;;;;;;2.42;0.95;;;2.20;99.90;;;;;;4880401;29;20427;-66
2023/04/01 08:36:19;;;;;;;6.28;1.48;;;2.30;99.90;;;;;;4887853;29;20470;-66
2023/04/01 08:39:40;;;;;;;8.00;1.63;;;2.30;99.90;;;;;;4886483;29;20725;-61
2023/04/01 08:42:40;;;;;;;6.40;1.20;;;2.30;99.90;;;;;;4833169;29;20664;-62
2023/04/01 08:45:16;;;;;;;9.38;1.00;;;2.30;99.90;;;;;;4885797;29;20293;-61
2023/04/01 08:48:08;;;;;;;5.45;1.52;;;2.30;99.90;;;;;;4881513;29;20404;-67
2023/04/01 08:51:07;;;;;;;2.58;0.85;;;2.30;99.90;;;;;;4871463;29;21252;-62
2023/04/01 08:53:55;;;;;;;2.97;1.23;;;2.40;99.90;;;;;;4866630;29;20048;-62
2023/04/01 08:56:47;;;;;;;4.68;1.88;;;2.40;99.90;;;;;;4887150;29;20060;-64
2023/04/01 08:59:31;;;;;;;1.88;1.13;;;2.50;99.90;;;;;;4885406;29;20049;-64
2023/04/01 09:02:40;;;;;;;3.63;0.85;;;2.60;99.90;;;;;;4887363;29;20084;-67
2023/04/01 09:05:31;;;;;;;7.35;1.25;;;2.70;99.90;;;;;;4885798;29;20065;-69
2023/04/01 09:08:19;;;;;;;2.75;0.90;;;2.80;99.90;;;;;;4880741;29;20040;-64
2023/04/01 09:11:25;;;;;;;4.03;0.82;;;2.80;99.90;;;;;;4883963;29;20060;-64
2023/04/01 09:14:26;;;;;;;1.88;0.95;;;2.80;99.90;;;;;;4885843;29;20131;-61
2023/04/01 09:17:34;;;;;;;3.92;1.08;;;2.80;99.90;;;;;;4863696;29;20102;-64
2023/04/01 09:20:30;;;;;;;5.95;1.00;;;2.90;99.90;;;;;;4885768;29;20049;-63
2023/04/01 09:23:16;;;;;;;7.55;1.15;;;3.00;99.90;;;;;;4839975;29;20144;-68
2023/04/01 09:26:21;;;;;;;9.18;1.63;;;3.00;99.90;;;;;;4882629;29;20396;-66
2023/04/01 09:29:15;;;;;;;5.65;1.60;;;2.90;99.90;;;;;;4887765;29;20071;-68
2023/04/01 09:32:30;;;;;;;5.32;2.42;;;3.00;99.90;;;;;;4871416;29;20515;-63
2023/04/01 09:35:28;;;;;;;17.40;2.33;;;3.00;99.90;;;;;;4882695;29;20064;-63
2023/04/01 09:38:08;;;;;;;7.22;1.30;;;3.10;99.90;;;;;;4886152;29;20147;-64
2023/04/01 09:40:54;;;;;;;6.70;1.40;;;3.10;99.90;;;;;;4887622;29;20135;-62
2023/04/01 09:43:36;;;;;;;2.72;1.13;;;3.10;99.90;;;;;;4867157;29;20061;-64
2023/04/01 09:46:14;;;;;;;1.45;0.60;;;3.30;99.90;;;;;;4883681;29;20466;-63
2023/04/01 09:48:59;;;;;;;3.05;1.48;;;3.30;99.90;;;;;;4888288;29;20566;-63
2023/04/01 09:52:06;;;;;;;17.48;2.05;;;3.40;99.90;;;;;;4879729;29;20467;-67
2023/04/01 09:54:56;;;;;;;9.77;1.58;;;3.40;99.90;;;;;;4879510;29;20140;-62
2023/04/01 09:58:07;;;;;;;14.65;1.40;;;3.40;99.90;;;;;;4876256;29;20111;-65
2023/04/01 10:01:40;;;;;;;3.20;1.38;;;3.50;99.90;;;;;;4886591;29;20411;-67
2023/04/01 10:04:42;;;;;;;2.05;0.98;;;3.60;99.90;;;;;;4887713;29;20051;-66
2023/04/01 10:07:20;;;;;;;8.25;1.27;;;3.60;99.90;;;;;;4885466;29;20058;-63
2023/04/01 10:10:10;;;;;;;4.85;1.67;;;3.50;99.90;;;;;;4882833;29;20432;-64
2023/04/01 10:13:00;;;;;;;6.82;0.93;;;3.50;99.90;;;;;;4885730;29;20048;-65
2023/04/01 10:15:33;;;;;;;9.00;1.92;;;3.50;99.90;;;;;;4878471;29;20055;-63
2023/04/01 10:18:29;;;;;;;22.58;2.65;;;3.50;99.90;;;;;;4883786;29;20538;-65
2023/04/01 10:21:06;;;;;;;6.38;1.40;;;3.60;99.90;;;;;;4885310;29;20056;-62
2023/04/01 10:23:51;;;;;;;5.88;1.17;;;3.70;99.90;;;;;;4866078;29;21036;-62
2023/04/01 10:26:25;;;;;;;5.82;0.98;;;3.80;99.90;;;;;;4864987;29;20056;-68
2023/04/01 10:29:38;;;;;;;9.45;1.00;;;3.80;99.90;;;;;;4885523;29;20080;-68
2023/04/01 10:32:32;;;;;;;12.65;1.00;;;3.80;99.90;;;;;;4882142;29;20135;-65
2023/04/01 10:35:24;;;;;;;3.80;0.63;;;3.80;99.90;;;;;;4882595;29;20044;-63
2023/04/01 10:38:13;;;;;;;8.98;1.77;;;3.80;99.90;;;;;;4884999;29;20056;-62
2023/04/01 10:40:56;;;;;;;3.78;1.48;;;4.00;99.90;;;;;;4888928;29;20063;-62
2023/04/01 10:44:10;;;;;;;7.28;1.15;;;4.10;99.90;;;;;;4868829;29;20049;-67
2023/04/01 10:47:15;;;;;;;6.15;0.93;;;4.30;99.90;;;;;;4886991;29;20117;-70
2023/04/01 10:50:04;;;;;;;9.60;1.25;;;4.30;99.90;;;;;;4871598;29;20135;-69
2023/04/01 10:53:15;;;;;;;10.73;1.52;;;4.30;99.90;;;;;;4886514;29;20411;-64
2023/04/01 10:56:35;;;;;;;3.25;1.25;;;4.30;99.90;;;;;;4805756;29;20047;-66
2023/04/01 10:59:26;;;;;;;26.38;2.17;;;4.40;99.90;;;;;;4807406;29;20061;-62
2023/04/01 11:02:20;;;;;;;5.72;0.77;;;4.30;99.90;;;;;;4893614;29;20052;-64
2023/04/01 11:05:15;;;;;;;7.80;0.80;;;4.30;99.90;;;;;;4890054;29;20181;-63
2023/04/01 11:08:16;;;;;;;9.75;1.40;;;4.30;99.90;;;;;;4883647;29;20055;-63
2023/04/01 11:10:52;;;;;;;4.03;1.58;;;4.40;99.90;;;;;;4884878;29;20559;-64
2023/04/01 11:13:31;;;;;;;8.63;1.02;;;4.50;99.90;;;;;;4888373;29;20055;-65
2023/04/01 11:16:44;;;;;;;1.48;0.70;;;4.50;99.90;;;;;;4886713;29;20056;-65
2023/04/01 11:19:41;;;;;;;7.55;1.25;;;4.70;99.90;;;;;;4889093;29;20048;-63
2023/04/01 11:22:32;;;;;;;8.85;1.30;;;4.60;99.90;;;;;;4886556;29;20044;-62
2023/04/01 11:25:21;;;;;;;4.75;0.95;;;4.50;99.90;;;;;;4862715;29;20445;-63
2023/04/01 11:28:33;;;;;;;10.15;1.50;;;4.30;99.90;;;;;;4887473;29;20501;-63
2023/04/01 11:31:23;;;;;;;6.13;1.45;;;4.00;99.90;;;;;;4884182;29;20418;-66
2023/04/01 11:34:32;;;;;;;5.15;1.13;;;4.00;99.90;;;;;;4886656;29;20048;-67
2023/04/01 11:37:19;;;;;;;7.35;1.80;;;4.00;99.90;;;;;;4884407;29;20498;-67
2023/04/01 11:40:38;;;;;;;4.30;2.28;;;4.00;99.90;;;;;;4888385;29;20161;-60
2023/04/01 11:43:29;;;;;;;9.32;1.20;;;4.10;99.90;;;;;;4891056;29;20163;-61
2023/04/01 11:46:41;;;;;;;17.88;2.10;;;4.20;99.90;;;;;;4880347;29;20415;-62
2023/04/01 11:49:39;;;;;;;5.30;1.30;;;4.20;99.90;;;;;;4883101;29;20059;-64
2023/04/01 11:52:28;;;;;;;3.10;1.08;;;4.20;99.90;;;;;;4890001;29;20087;-61
2023/04/01 11:55:04;;;;;;;7.68;1.85;;;4.10;99.90;;;;;;4890202;29;20054;-68
2023/04/01 11:57:59;;;;;;;5.82;1.05;;;4.00;99.90;;;;;;4882849;29;20052;-64
2023/04/01 12:00:51;;;;;;;7.55;1.35;;;4.00;99.90;;;;;;4887451;29;20052;-62
2023/04/01 12:03:37;;;;;;;6.90;1.30;;;4.10;99.90;;;;;;4888050;29;20499;-65
2023/04/01 12:06:34;;;;;;;8.90;1.40;;;4.00;99.90;;;;;;4889073;29;20049;-64
2023/04/01 12:09:25;;;;;;;7.80;1.42;;;4.00;99.90;;;;;;4888656;29;20135;-62
2023/04/01 12:12:06;;;;;;;6.90;1.90;;;3.90;99.90;;;;;;4885475;29;20056;-62
2023/04/01 12:14:59;;;;;;;6.90;1.52;;;4.00;99.90;;;;;;4886347;29;20135;-61
2023/04/01 12:18:18;;;;;;;7.03;2.30;;;4.20;99.90;;;;;;4889236;29;20053;-63
2023/04/01 12:21:06;;;;;;;9.32;1.25;;;4.10;99.90;;;;;;4812214;29;20055;-62
2023/04/01 12:23:33;;;;;;;10.32;2.20;;;4.10;99.90;;;;;;4884502;29;20095;-61
2023/04/01 12:26:09;;;;;;;24.95;6.13;;;4.10;99.90;;;;;;4888968;29;20058;-65
2023/04/01 12:29:21;;;;;;;19.40;2.47;;;4.20;99.90;;;;;;4888283;29;20052;-63
2023/04/01 12:31:53;;;;;;;3.83;1.25;;;4.40;99.90;;;;;;4888876;29;20116;-61
2023/04/01 12:34:41;;;;;;;7.80;1.60;;;4.30;99.90;;;;;;4888665;29;20052;-62
2023/04/01 12:37:30;;;;;;;6.65;1.50;;;4.30;99.90;;;;;;4888641;29;20147;-63
2023/04/01 12:40:17;;;;;;;8.80;1.40;;;4.40;99.90;;;;;;4890335;29;20503;-64
2023/04/01 12:43:11;;;;;;;13.27;1.67;;;4.50;99.90;;;;;;4887450;29;20483;-65
2023/04/01 12:46:17;;;;;;;7.18;1.95;;;4.30;99.90;;;;;;4885490;29;20052;-65
2023/04/01 12:49:10;;;;;;;16.13;1.80;;;4.30;99.90;;;;;;4870542;29;20048;-64
2023/04/01 12:52:03;;;;;;;3.47;0.88;;;4.50;99.90;;;;;;4884842;29;20056;-70
2023/04/01 12:54:58;;;;;;;5.35;1.08;;;4.70;99.90;;;;;;4887690;29;20084;-62
2023/04/01 12:57:54;;;;;;;10.65;1.27;;;4.70;99.90;;;;;;4886453;29;20523;-63
2023/04/01 13:00:33;;;;;;;13.32;3.55;;;4.80;99.90;;;;;;4884997;29;20045;-64
2023/04/01 13:03:08;;;;;;;8.15;2.10;;;4.80;99.90;;;;;;4886224;29;20049;-60
2023/04/01 13:05:56;;;;;;;5.30;1.58;;;4.70;99.90;;;;;;4882718;29;20060;-62
2023/04/01 13:08:42;;;;;;;5.32;1.35;;;4.70;99.90;;;;;;4885100;29;20059;-61
2023/04/01 13:11:22;;;;;;;3.78;1.02;;;4.60;99.90;;;;;;4887914;29;20060;-63
2023/04/01 13:14:16;;;;;;;3.55;1.20;;;4.70;99.90;;;;;;4886789;29;20486;-61
2023/04/01 13:17:48;;;;;;;9.23;1.75;;;4.70;99.90;;;;;;4884629;29;20063;-60
2023/04/01 13:20:43;;;;;;;13.05;1.20;;;4.70;99.90;;;;;;4821959;29;20479;-63
2023/04/01 13:23:51;;;;;;;8.82;1.30;;;4.90;99.90;;;;;;4884676;29;20055;-63
2023/04/01 13:26:55;;;;;;;1.50;0.68;;;5.10;99.90;;;;;;4868143;29;20049;-64
2023/04/01 13:29:51;;;;;;;5.53;1.70;;;5.20;99.90;;;;;;4884685;29;20075;-63
2023/04/01 13:32:46;;;;;;;4.30;0.80;;;5.20;99.90;;;;;;4889609;29;20056;-65
2023/04/01 13:36:04;;;;;;;3.30;0.98;;;5.10;99.90;;;;;;4872260;29;20916;-60
2023/04/01 13:38:45;;;;;;;7.60;1.15;;;5.00;99.90;;;;;;4851604;29;20056;-62
2023/04/01 13:41:44;;;;;;;3.05;1.10;;;5.00;99.90;;;;;;4887480;29;20406;-64
2023/04/01 13:44:41;;;;;;;2.30;0.98;;;4.70;99.90;;;;;;4887714;29;20056;-61
2023/04/01 13:47:26;;;;;;;8.25;2.20;;;4.70;99.90;;;;;;4885816;29;20045;-61
2023/04/01 13:50:17;;;;;;;10.70;1.45;;;4.80;99.90;;;;;;4885906;29;20381;-65
2023/04/01 13:53:11;;;;;;;8.23;1.30;;;4.90;99.90;;;;;;4892448;29;20055;-61
2023/04/01 13:56:03;;;;;;;5.75;1.00;;;4.90;99.90;;;;;;4882722;29;20432;-67
2023/04/01 13:59:00;;;;;;;4.75;0.85;;;4.80;99.90;;;;;;4888146;29;20092;-66
2023/04/01 14:01:42;;;;;;;4.10;0.90;;;5.00;99.90;;;;;;4882959;29;20083;-67
2023/04/01 14:04:33;;;;;;;4.18;1.15;;;5.20;99.90;;;;;;4891042;29;20048;-63
2023/04/01 14:07:15;;;;;;;3.97;1.05;;;5.20;99.90;;;;;;4883347;29;20049;-61
2023/04/01 14:09:42;;;;;;;3.78;1.08;;;5.40;99.90;;;;;;4885409;29;20132;-65
2023/04/01 14:12:29;;;;;;;2.78;0.68;;;5.60;99.90;;;;;;4888186;29;20058;-60
2023/04/01 14:15:21;;;;;;;3.63;1.05;;;5.60;99.90;;;;;;4890185;29;20057;-65